Terminal Aerodrome Forecast
Issued by NWS Salt Lake City, UT

Home | Current Version | Previous Version | Text Only | Print | Product List | Glossary On
Versions: 1 2 3 4 5 6 7 8 9 10 11 12 13 14 15 16 17 18 19 20 21
000
FTUS45 KSLC 210529
TAFCDC
TAF
KCDC 210529Z 2106/2206 22010KT 2SM -SHSN SCT009 OVC025
     FM210900 22008KT P6SM VCSH SCT020 BKN040
     FM211200 23010KT 1SM -SN SCT004 OVC015
     FM211800 32007KT P6SM VCSH SCT025 BKN050
     FM220000 20006KT P6SM SCT060 BKN120=

USA.gov is the U.S. government's official web portal to all federal, state and local government web resources and services.